Tiempo atmosférico en la estación meteorológica de San Clemente, Cuenca (728 m.)



Fecha
DESCASC
Temp. máxima en grados centígrados (hora)
DESCASC
Temp. mínima en grados centígrados (hora)
DESCASC
Temp. media en grados centígrados
DESCASC
Racha de viento máxima en m/sg (hora)
DESCASC
Velocidad máxima media en intervalos de 10 minutos(hora)
DESCASC
Precipitaciones diarias en mm
DESCASC
Precipitaciones de 00:00 a 06:00 en mm
DESCASC
Precipitaciones de 06:00 a 12:00 en mm
DESCASC
Precipitaciones de 12:00 a 18:00 en mm
DESCASC
Precipitaciones de 18:00 a 24:00 en mm
DESCASC
13-10-2019 28.3 (16:50) 15.6 (08:20) 21.9 -- (--) -- (--) 0 0 0 0 0
12-10-2019 25.1 (17:30) 15.3 (08:20) 20.2 11.67 (00:20) 5.56 (23:50) 0 0 0 0 0
11-10-2019 26.7 (16:00) 15.7 (08:40) 21.2 10.28 (10:10) 5.83 (10:10) 0 0 0 0 0
10-10-2019 25.4 (16:40) 16.7 (00:00) 21.1 12.78 (11:10) 6.67 (11:10) 0 0 0 0 0
09-10-2019 -- (--) -- (--) -- -- (--) -- (--) -- -- -- -- 0
08-10-2019 -- (--) -- (--) -- -- (--) -- (--) -- -- -- -- --
07-10-2019 -- (--) -- (--) -- -- (--) -- (--) -- -- -- -- --
06-10-2019 -- (--) -- (--) -- -- (--) -- (--) -- -- -- -- --
05-10-2019 -- (--) -- (--) -- -- (--) -- (--) -- -- -- -- --
04-10-2019 -- (--) -- (--) -- -- (--) -- (--) -- 0 0 0 --
03-10-2019 24.4 (17:30) 7.6 (00:00) 16 10.28 (15:30) 6.39 (14:50) 0 0 0 0 0
02-10-2019 24.1 (17:10) 9.9 (00:00) 17 14.17 (14:50) 7.5 (14:20) 0 0 0 0 0
01-10-2019 27.9 (16:10) 11.4 (00:00) 19.6 12.5 (18:20) 7.78 (18:20) 0 0 0 0 0
30-09-2019 30.3 (16:40) 10.7 (00:00) 20.5 -- (--) -- (--) 0 0 0 0 0
29-09-2019 29.8 (16:20) 12.9 (00:00) 21.3 9.72 (17:40) 5.56 (17:20) 0 0 0 0 0
28-09-2019 29.7 (17:30) 11.4 (00:00) 20.6 -- (--) -- (--) 0 0 0 0 0
27-09-2019 28.1 (17:10) 11.7 (00:00) 19.9 9.17 (17:40) 5.28 (15:30) 0 0 0 0 0
26-09-2019 27.8 (17:10) 10.9 (00:00) 19.3 -- (--) -- (--) 0 0 0 0 0
25-09-2019 23.8 (17:00) 14.1 (00:00) 18.9 9.72 (15:10) 5.83 (15:20) 0 0 0 0 0
24-09-2019 26.7 (18:10) 10.7 (00:00) 18.7 9.44 (16:00) 6.11 (12:50) 0 0 0 0 0
23-09-2019 22 (16:20) 9.7 (00:00) 15.8 -- (--) -- (--) 0 0 0 0 0
22-09-2019 22.1 (14:20) 14.2 (00:00) 18.2 13.06 (16:40) 8.89 (16:10) 2.6 0 0 2.4 0.2
21-09-2019 22.9 (15:40) 15.3 (00:00) 19.1 10 (01:00) 6.11 (04:20) 27.2 26.6 0.2 0.4 0
20-09-2019 24.7 (15:30) 16.6 (00:00) 20.7 11.94 (16:40) 6.67 (18:10) 3.4 0 0 0 3.4
19-09-2019 27.8 (15:30) 14.9 (00:00) 21.3 11.67 (16:10) 7.78 (16:10) 0 0 0 0 0
18-09-2019 27.3 (16:50) 12.7 (00:00) 20 6.39 (16:50) 3.61 (18:00) 0 0 0 0 0
17-09-2019 28.8 (16:10) 15.7 (00:00) 22.2 -- (--) -- (--) -- -- 0 0 6
16-09-2019 27.6 (17:30) 18.1 (00:00) 22.9 6.67 (15:00) 3.33 (18:50) 0 0 0 0 0
15-09-2019 23.3 (16:40) 17.1 (00:00) 20.2 -- (--) -- (--) 0 0 0 0 0

Gráficas

Temp. máximas Temp. mínimas Temp. medias Precipitaciones Rachas de viento máximas Velocidades máximas media en intervalos de 10 minutos

Datos horarios

Fecha y hora oficial Temperatura (ºC) Velocidad del viento (km/h) Dirección del viento Racha (km/h) Dirección de racha Precipitación (mm) Presión (hPa) Tendencia (hPa) Humedad (%)
2019-10-14 23:00:00 11.1 17 Norte 31 Norte 0 933.6 2.8 80
2019-10-14 22:00:00 12.5 21 Norte 34 Norte 0 933.1 3.1 66
2019-10-14 21:00:00 12.7 30 Nordeste 55 Nordeste 0 932.4 2.6 71
2019-10-14 20:00:00 16.8 30 Norte 50 Norte 0 930.8 1.4 50
2019-10-14 19:00:00 19.1 24 Noroeste 45 Norte 0 930 0.5 46
2019-10-14 18:00:00 19.7 30 Norte 47 Norte 0 929.8 0.1 49
2019-10-14 17:00:00 20.6 26 Norte 49 Noroeste 0 929.4 -1 50
2019-10-14 16:00:00 21.7 35 Norte 52 Noroeste 0 929.5 -1.7 46
2019-10-14 15:00:00 22.3 33 Noroeste 52 Noroeste 0 929.7 -2.1 47
2019-10-14 14:00:00 21.5 27 Noroeste -- -- 0 930.4 -1.6 51
2019-10-14 13:00:00 20.9 18 Noroeste -- -- 0 931.2 -0.2 58
2019-10-14 12:00:00 18.8 20 Oeste 30 Oeste 0 931.8 1.4 69
2019-10-14 11:00:00 17.1 16 Noroeste 35 Noroeste 0 932 2.5 76
2019-10-14 10:00:00 16.6 21 Noroeste 44 Noroeste 0.8 931.4 1.9 75
2019-10-14 09:00:00 17.1 7 Sudoeste -- -- 0 930.4 1.2 78
2019-10-14 08:00:00 16.8 13 Sudoeste 32 Sur 0 929.5 0.2 83
2019-10-14 07:00:00 16.7 17 Sudoeste 39 Sudoeste 0 929.5 -0.5 86
2019-10-14 06:00:00 16.8 19 Sudoeste 40 Sur 0 929.2 -1.2 88
2019-10-14 05:00:00 16.5 22 Sur 43 Sur 0 929.3 -2.2 92
2019-10-14 04:00:00 16.9 24 Sudoeste 44 Sudoeste 0 930 -2 91
2019-10-14 03:00:00 16.9 22 Sur 44 Sur 0 930.4 -2 90
2019-10-14 02:00:00 17.2 19 Sur 36 Sur 0 931.5 -1 86
2019-10-14 01:00:00 17.6 18 Sur 32 Sur 0 932 -0.3 82
2019-10-14 00:00:00 18.3 15 Sur 27 Sur 0 932.4 0.1 68
2019-10-13 23:00:00 18.5 8 Sur -- -- 0 932.5 0.4 55
2019-10-13 22:00:00 17.1 6 Este 7 Sudeste 0 932.3 0.3 40
2019-10-13 21:00:00 19 -- -- -- -- 0 932.3 0.3 38
2019-10-13 20:00:00 22.5 5 Oeste -- -- 0 932.1 0.1 29
2019-10-13 19:00:00 25.8 13 Noroeste -- -- 0 932 -0.2 23
2019-10-13 18:00:00 27.4 21 Noroeste -- -- 0 932 -0.7 21
2019-10-13 17:00:00 28.2 22 Noroeste 38 Oeste 0 932 -1.7 18
2019-10-13 16:00:00 27.1 12 Oeste -- -- 0 932.2 -2.2 33
2019-10-13 15:00:00 26.4 10 Oeste 28 Sudoeste 0 932.7 -2.2 38
2019-10-13 14:00:00 25.1 8 Oeste 25 Oeste 0 933.7 -0.9 46
2019-10-13 13:00:00 23.2 9 Sudoeste 19 Sudoeste 0 934.4 0.3 52
2019-10-13 12:00:00 21.5 10 Sudoeste 22 Sudoeste 0 934.9 1.2 64
2019-10-13 11:00:00 19.5 14 Sudoeste 30 Sur 0 934.6 1.1 73
2019-10-13 10:00:00 17.9 14 Sudoeste 28 Sur 0 934.1 0.7 80
2019-10-13 09:00:00 16.1 13 Sudoeste 23 Sur 0 933.7 0.5 89
2019-10-13 08:00:00 16 12 Sur 27 Sudoeste 0 933.5 0.5 90
2019-10-13 07:00:00 16.3 11 Sur -- -- 0 933.4 0 89
2019-10-13 06:00:00 16.5 13 Sudoeste 30 Sudoeste 0 933.2 -0.4 89
2019-10-13 05:00:00 16.7 15 Sur 26 Sudoeste 0 933 -0.8 89
2019-10-13 04:00:00 16.6 10 Sur 30 Sudoeste 0 933.4 -0.7 88
2019-10-13 03:00:00 16.9 15 Sur 31 Sur 0 933.6 -0.4 87
2019-10-13 02:00:00 17.2 15 Sudoeste 30 Sudoeste 0 933.8 -0.5 86
2019-10-13 01:00:00 17.7 14 Sur 36 Sudoeste 0 934.1 0.3 85
2019-10-13 00:00:00 17.8 17 Sur 39 Sur 0 934 0.7 84
2019-10-12 23:00:00 17.8 13 Sur 29 Sur 0 934.3 1.3 83
2019-10-12 22:00:00 18.5 13 Sur 32 Sur 0 933.8 1 78
2019-10-12 21:00:00 19.5 18 Sur 35 Sudoeste 0 933.3 0.6 72
2019-10-12 20:00:00 21 16 Sur 31 Sur 0 933 -0.3 66
2019-10-12 19:00:00 23.5 16 Sur 33 Sudoeste 0 932.8 -0.8 54
2019-10-12 18:00:00 25.1 15 Sur 30 Sudoeste 0 932.7 -1.5 42
2019-10-12 17:00:00 24.7 14 Sudoeste 28 Sur 0 933.3 -1.8 41
2019-10-12 16:00:00 24.3 16 Sur 27 Sur 0 933.6 -2 40
2019-10-12 15:00:00 23.4 15 Sur 30 Sur 0 934.2 -1.6 41
2019-10-12 14:00:00 23 15 Sudoeste 30 Sudoeste 0 935.1 -0.6 47
2019-10-12 13:00:00 21.4 16 Sudoeste 31 Sur 0 935.6 0.2 55
2019-10-12 12:00:00 20.4 15 Sur 29 Sudoeste 0 935.8 0.8 62
2019-10-12 11:00:00 18.1 15 Sudoeste 28 Sudoeste 0 935.7 0.8 74
2019-10-12 10:00:00 17.7 12 Sur 26 Sur 0 935.4 0.5 80
2019-10-12 09:00:00 15.5 12 Sur 20 Sur 0 935 0 91
2019-10-12 08:00:00 15.4 8 Sudoeste 20 Sudoeste 0 934.9 -0.1 91
2019-10-12 07:00:00 15.8 12 Sur 22 Sur 0 934.9 -0.5 91
2019-10-12 06:00:00 16 10 Sur 19 Sur 0 935 -0.6 91
2019-10-12 05:00:00 16.2 12 Sur 21 Sur 0 935 -0.8 89
2019-10-12 04:00:00 16.5 9 Sur 21 Sur 0 935.4 -0.5 87
2019-10-12 03:00:00 17 10 Sur 29 Sudoeste 0 935.6 0 85
2019-10-12 02:00:00 17.8 15 Sur 26 Sudoeste 0 935.8 -0.1 83
2019-10-12 01:00:00 18.4 14 Sudoeste 42 Sudoeste 0 935.9 0.4 77
2019-10-12 00:00:00 19 18 Sudoeste 37 Sudoeste 0 935.6 0.7 69
2019-10-11 23:00:00 19.8 17 Sudoeste 36 Sur 0 935.9 1.3 67
2019-10-11 22:00:00 20.4 15 Sur 31 Sudoeste 0 935.5 0.8 63
2019-10-11 21:00:00 21.1 15 Sudoeste 28 Sudoeste 0 934.9 0.2 57
2019-10-11 20:00:00 22.2 13 Sur 26 Sudoeste 0 934.6 -0.3 49
2019-10-11 19:00:00 24.3 13 Sudoeste 32 Sudoeste 0 934.7 -0.7 40
2019-10-11 18:00:00 25.6 16 Sudoeste 30 Sudoeste 0 934.7 -1.4 30
2019-10-11 17:00:00 25.8 15 Sudoeste 32 Sudoeste 0 934.9 -2.2 28
2019-10-11 16:00:00 26.6 14 Sudoeste 30 Sudoeste 0 935.4 -2.6 28
2019-10-11 15:00:00 25.8 17 Sudoeste 33 Sudoeste 0 936.1 -2.1 32
2019-10-11 14:00:00 24.3 18 Sudoeste 36 Sudoeste 0 937.1 -1.3 42
2019-10-11 13:00:00 22 20 Sudoeste 36 Sudoeste 0 938 -0.3 56
2019-10-11 12:00:00 21 19 Sur 36 Sur 0 938.2 0.5 62
2019-10-11 11:00:00 19.2 21 Sur 37 Sur 0 938.4 1.1 70
2019-10-11 10:00:00 17.9 18 Sudoeste 34 Sudoeste 0 938.3 1 77
2019-10-11 09:00:00 16.4 13 Sur 26 Sur 0 937.7 0.6 83
2019-10-11 08:00:00 16 15 Sur 30 Sur 0 937.3 0.1 84
2019-10-11 07:00:00 16.4 16 Sur 31 Sur 0 937.3 -0.1 84
2019-10-11 06:00:00 16.4 14 Sur 32 Sudoeste 0 937.1 -0.5 84
2019-10-11 05:00:00 16.8 17 Sur 31 Sur 0 937.2 -0.5 83
2019-10-11 04:00:00 16.9 17 Sur 32 Sudoeste 0 937.4 -0.4 85
2019-10-11 03:00:00 16.7 15 Sur 33 Sur 0 937.6 -0.1 86
2019-10-11 02:00:00 16.6 14 Sur 30 Sur 0 937.7 0.3 86
2019-10-11 01:00:00 16.3 16 Sur 27 Sur 0 937.8 0.7 87
2019-10-11 00:00:00 16.7 15 Sur 32 Sur 0 937.7 0.9 85
2019-10-10 23:00:00 17.4 17 Sur 30 Sur 0 937.4 1.3 79
2019-10-10 22:00:00 18.5 17 Sur 28 Sur 0 937.1 1.4 75
2019-10-10 21:00:00 20.1 13 Sur 32 Sudoeste 0 936.8 1.2 68
2019-10-10 20:00:00 22 13 Sudoeste 32 Sudoeste 0 936.1 0.5 57
2019-10-10 19:00:00 23.9 16 Sudoeste 37 Sudoeste 0 935.7 -0.2 49
2019-10-10 18:00:00 25.2 19 Sudoeste 34 Sudoeste 0 935.6 -0.7 45
2019-10-10 17:00:00 25.3 17 Sudoeste 36 Sudoeste 0 935.6 -1.3 46
2019-10-10 16:00:00 25 17 Sudoeste 35 Sudoeste 0 935.9 -1.4 49
2019-10-10 15:00:00 24.2 17 Sudoeste 33 Sudoeste 0 936.3 -1.2 53
2019-10-10 14:00:00 23.5 18 Sudoeste 38 Sur 0 936.9 -0.6 56
2019-10-10 13:00:00 22 22 Sudoeste 39 Sudoeste 0 937.3 0.1 61
2019-10-10 12:00:00 20.9 19 Sur 46 Sudoeste 0 937.5 0.9 65
2019-10-10 11:00:00 19.7 21 Sudoeste 42 Sudoeste 0 937.5 1.3 69
2019-10-10 10:00:00 18.5 20 Sudoeste 38 Sudoeste 0 937.2 1.2 74
2019-10-10 09:00:00 17.1 17 Sur -- -- 0 936.6 1.1 80
2019-10-10 08:00:00 17 15 Sur 29 Sur 0 936.2 0.6 80
2019-10-10 07:00:00 16.8 15 Sur 27 Sur 0 936 0.4 81
2019-10-10 06:00:00 17 15 Sur 29 Sur 0 935.5 -0.2 80
2019-10-10 05:00:00 17.2 14 Sur 32 Sur 0 935.6 -0.2 82
2019-10-10 04:00:00 17.7 17 Sur 34 Sur 0 935.6 0.2 82
2019-10-10 03:00:00 17.7 19 Sur 30 Sur 0 935.7 0.9 85
2019-10-10 02:00:00 17.3 15 Sur 28 Sudoeste 0 935.8 1.4 87
2019-10-10 01:00:00 17.4 16 Sur 33 Sur 0 935.4 1.6 85
2019-10-10 00:00:00 18.6 17 Sur 33 Sur 0 934.8 1.5 78
2019-10-09 23:00:00 19.9 17 Sur 26 Sur 0 934.4 1.4 74
2019-10-09 22:00:00 19 6 Sudeste 12 Sur 0 933.8 1.2 48
2019-10-09 21:00:00 21.6 6 Este 11 Nordeste 0 933.3 0.9 43
2019-10-09 20:00:00 24.3 10 Nordeste 13 Nordeste 0 933 0.5 36
2019-10-09 19:00:00 27.9 11 Norte 19 Norte 0 932.6 -0.3 31
2019-10-09 18:00:00 29.2 14 Norte 22 Norte 0 932.4 -0.8 28
2019-10-09 17:00:00 29.5 9 Norte 23 Norte 0 932.5 -1.2 28
2019-10-09 16:00:00 29.4 10 Norte 24 Norte 0 932.9 -- 27
2019-10-09 15:00:00 28.7 12 Norte 20 Norte 0 933.2 -- 29
2019-10-09 14:00:00 27.4 5 Noroeste -- -- -- 933.7 -- 36
2019-10-09 13:00:00 -- -- -- -- -- -- -- -- --
2019-10-09 12:00:00 -- -- -- -- -- -- -- -- --
2019-10-09 11:00:00 -- -- -- -- -- -- -- -- --
2019-10-09 10:00:00 -- -- -- -- -- -- -- -- --
2019-10-09 09:00:00 -- -- -- -- -- -- -- -- --
2019-10-09 08:00:00 -- -- -- -- -- -- -- -- --
2019-10-09 07:00:00 -- -- -- -- -- -- -- -- --
2019-10-09 06:00:00 -- -- -- -- -- -- -- -- --
2019-10-09 05:00:00 -- -- -- -- -- -- -- -- --
2019-10-09 04:00:00 -- -- -- -- -- -- -- -- --
2019-10-09 03:00:00 -- -- -- -- -- -- -- -- --
2019-10-09 02:00:00 -- -- -- -- -- -- -- -- --
2019-10-09 01:00:00 -- -- -- -- -- -- -- -- --
2019-10-09 00:00:00 -- -- -- -- -- -- -- -- --
2019-10-08 23:00:00 -- -- -- -- -- -- -- -- --
2019-10-08 22:00:00 -- -- -- -- -- -- -- -- --
2019-10-08 21:00:00 -- -- -- -- -- -- -- -- --
2019-10-08 20:00:00 -- -- -- -- -- -- -- -- --
2019-10-08 19:00:00 -- -- -- -- -- -- -- -- --
2019-10-08 18:00:00 -- -- -- -- -- -- -- -- --
2019-10-08 17:00:00 -- -- -- -- -- -- -- -- --
2019-10-08 16:00:00 -- -- -- -- -- -- -- -- --
2019-10-08 15:00:00 -- -- -- -- -- -- -- -- --
2019-10-08 14:00:00 -- -- -- -- -- -- -- -- --
2019-10-08 13:00:00 -- -- -- -- -- -- -- -- --
2019-10-08 12:00:00 -- -- -- -- -- -- -- -- --
2019-10-08 11:00:00 -- -- -- -- -- -- -- -- --
2019-10-08 10:00:00 -- -- -- -- -- -- -- -- --
2019-10-08 09:00:00 -- -- -- -- -- -- -- -- --
2019-10-08 08:00:00 -- -- -- -- -- -- -- -- --
2019-10-08 07:00:00 -- -- -- -- -- -- -- -- --
2019-10-08 06:00:00 -- -- -- -- -- -- -- -- --
2019-10-08 05:00:00 -- -- -- -- -- -- -- -- --
2019-10-08 04:00:00 -- -- -- -- -- -- -- -- --
2019-10-08 03:00:00 -- -- -- -- -- -- -- -- --
2019-10-08 02:00:00 -- -- -- -- -- -- -- -- --
2019-10-08 01:00:00 -- -- -- -- -- -- -- -- --
2019-10-08 00:00:00 -- -- -- -- -- -- -- -- --
2019-10-07 23:00:00 -- -- -- -- -- -- -- -- --
2019-10-07 22:00:00 -- -- -- -- -- -- -- -- --
2019-10-07 21:00:00 -- -- -- -- -- -- -- -- --
2019-10-07 20:00:00 -- -- -- -- -- -- -- -- --
2019-10-07 19:00:00 -- -- -- -- -- -- -- -- --
2019-10-07 18:00:00 -- -- -- -- -- -- -- -- --
2019-10-07 17:00:00 -- -- -- -- -- -- -- -- --
2019-10-07 16:00:00 -- -- -- -- -- -- -- -- --
2019-10-07 15:00:00 -- -- -- -- -- -- -- -- --
2019-10-07 14:00:00 -- -- -- -- -- -- -- -- --
2019-10-07 13:00:00 -- -- -- -- -- -- -- -- --
2019-10-07 12:00:00 -- -- -- -- -- -- -- -- --
2019-10-07 11:00:00 -- -- -- -- -- -- -- -- --
2019-10-07 10:00:00 -- -- -- -- -- -- -- -- --
2019-10-07 09:00:00 -- -- -- -- -- -- -- -- --
2019-10-07 08:00:00 -- -- -- -- -- -- -- -- --
2019-10-07 07:00:00 -- -- -- -- -- -- -- -- --
2019-10-07 06:00:00 -- -- -- -- -- -- -- -- --
2019-10-07 05:00:00 -- -- -- -- -- -- -- -- --
2019-10-07 04:00:00 -- -- -- -- -- -- -- -- --
2019-10-07 03:00:00 -- -- -- -- -- -- -- -- --
2019-10-07 02:00:00 -- -- -- -- -- -- -- -- --
2019-10-07 01:00:00 -- -- -- -- -- -- -- -- --
2019-10-07 00:00:00 -- -- -- -- -- -- -- -- --
2019-10-06 23:00:00 -- -- -- -- -- -- -- -- --
2019-10-06 22:00:00 -- -- -- -- -- -- -- -- --
2019-10-06 21:00:00 -- -- -- -- -- -- -- -- --
2019-10-06 20:00:00 -- -- -- -- -- -- -- -- --
2019-10-06 19:00:00 -- -- -- -- -- -- -- -- --
2019-10-06 18:00:00 -- -- -- -- -- -- -- -- --
2019-10-06 17:00:00 -- -- -- -- -- -- -- -- --
2019-10-06 16:00:00 -- -- -- -- -- -- -- -- --
2019-10-06 15:00:00 -- -- -- -- -- -- -- -- --
2019-10-06 14:00:00 -- -- -- -- -- -- -- -- --
2019-10-06 13:00:00 -- -- -- -- -- -- -- -- --
2019-10-06 12:00:00 -- -- -- -- -- -- -- -- --
2019-10-06 11:00:00 -- -- -- -- -- -- -- -- --
2019-10-06 10:00:00 -- -- -- -- -- -- -- -- --
2019-10-06 09:00:00 -- -- -- -- -- -- -- -- --
2019-10-06 08:00:00 -- -- -- -- -- -- -- -- --
2019-10-06 07:00:00 -- -- -- -- -- -- -- -- --
2019-10-06 06:00:00 -- -- -- -- -- -- -- -- --
2019-10-06 05:00:00 -- -- -- -- -- -- -- -- --
2019-10-06 04:00:00 -- -- -- -- -- -- -- -- --
2019-10-06 03:00:00 -- -- -- -- -- -- -- -- --
2019-10-06 02:00:00 -- -- -- -- -- -- -- -- --
2019-10-06 01:00:00 -- -- -- -- -- -- -- -- --
2019-10-06 00:00:00 -- -- -- -- -- -- -- -- --
2019-10-05 23:00:00 -- -- -- -- -- -- -- -- --
2019-10-05 22:00:00 -- -- -- -- -- -- -- -- --
2019-10-05 21:00:00 -- -- -- -- -- -- -- -- --
2019-10-05 20:00:00 -- -- -- -- -- -- -- -- --
2019-10-05 19:00:00 -- -- -- -- -- -- -- -- --
2019-10-05 18:00:00 -- -- -- -- -- -- -- -- --
2019-10-05 17:00:00 -- -- -- -- -- -- -- -- --
2019-10-05 16:00:00 -- -- -- -- -- -- -- -- --
2019-10-05 15:00:00 -- -- -- -- -- -- -- -- --
2019-10-05 14:00:00 -- -- -- -- -- -- -- -- --
2019-10-05 13:00:00 -- -- -- -- -- -- -- -- --
2019-10-05 12:00:00 -- -- -- -- -- -- -- -- --
2019-10-05 11:00:00 -- -- -- -- -- -- -- -- --
2019-10-05 10:00:00 -- -- -- -- -- -- -- -- --
2019-10-05 09:00:00 -- -- -- -- -- -- -- -- --
2019-10-05 08:00:00 -- -- -- -- -- -- -- -- --
2019-10-05 07:00:00 -- -- -- -- -- -- -- -- --
2019-10-05 06:00:00 -- -- -- -- -- -- -- -- --
2019-10-05 05:00:00 -- -- -- -- -- -- -- -- --
2019-10-05 04:00:00 -- -- -- -- -- -- -- -- --
2019-10-05 03:00:00 -- -- -- -- -- -- -- -- --
2019-10-05 02:00:00 -- -- -- -- -- -- -- -- --
2019-10-05 01:00:00 -- -- -- -- -- -- -- -- --
2019-10-05 00:00:00 -- -- -- -- -- -- -- -- --
2019-10-04 23:00:00 -- -- -- -- -- -- -- -- --
2019-10-04 22:00:00 -- -- -- -- -- -- -- -- --
2019-10-04 21:00:00 -- -- -- -- -- -- -- -- --
2019-10-04 20:00:00 -- -- -- -- -- -- -- -- --
2019-10-04 19:00:00 -- -- -- -- -- -- -- -- --
2019-10-04 18:00:00 27.6 12 Norte 24 Noroeste 0 932.6 -1.2 22
2019-10-04 17:00:00 27.5 14 Norte 26 Norte 0 932.7 -2.1 21
2019-10-04 16:00:00 27.2 12 Norte 24 Norte 0 933.1 -2.3 22
2019-10-04 15:00:00 26.1 11 Norte 24 Noroeste 0 933.8 -2.1 26
2019-10-04 14:00:00 24.9 12 Noroeste 24 Norte 0 934.8 -1.4 28
2019-10-04 13:00:00 23.4 9 Noroeste 14 Noroeste 0 935.4 -0.6 32
2019-10-04 12:00:00 21 5 Noroeste 10 Norte 0 935.9 0.4 38
2019-10-04 11:00:00 18.6 2 Sudoeste 11 Este 0 936.2 0.9 43
2019-10-04 10:00:00 14.8 7 Este 11 Este 0 936 0.8 51
2019-10-04 09:00:00 9.9 6 Este 12 Este 0 935.5 0.2 63
2019-10-04 08:00:00 7.9 9 Este 13 Este 0 935.3 0 67
2019-10-04 07:00:00 8.2 12 Este 17 Este 0 935.2 -0.2 66
2019-10-04 06:00:00 9 8 Este 13 Este 0 935.3 -0.3 64
2019-10-04 05:00:00 9.6 9 Este 12 Este 0 935.3 -0.3 61
2019-10-04 04:00:00 9.8 7 Este 13 Sur 0 935.4 -0.2 61
2019-10-04 03:00:00 11.1 8 Este 14 Este 0 935.6 0 56
2019-10-04 02:00:00 10.8 3 Sur 12 Sudeste 0 935.6 0.3 58
2019-10-04 01:00:00 12.2 4 Este 9 Oeste 0 935.6 0.3 51
2019-10-04 00:00:00 13.5 4 Este 13 Nordeste 0 935.6 0.4 46
2019-10-03 23:00:00 15.1 8 Nordeste 13 Nordeste 0 935.3 0.4 42
2019-10-03 22:00:00 16 5 Nordeste 14 Nordeste 0 935.3 0.8 41
2019-10-03 21:00:00 18.2 13 Nordeste 17 Nordeste 0 935.2 0.9 35
2019-10-03 20:00:00 20.6 13 Nordeste 24 Norte 0 934.9 0.5 29
2019-10-03 19:00:00 23.2 16 Norte 34 Norte 0 934.5 -0.2 25
2019-10-03 18:00:00 24.3 21 Norte 32 Norte 0 934.3 -0.7 25
2019-10-03 17:00:00 24.1 19 Norte 33 Noroeste 0 934.4 -1 28
2019-10-03 16:00:00 23.9 21 Norte 37 Norte 0 934.7 -1.2 29
2019-10-03 15:00:00 23.1 21 Norte 36 Norte 0 935 -1.2 31
2019-10-03 14:00:00 22 17 Norte 36 Norte 0 935.4 -1.1 34
2019-10-03 13:00:00 21.3 20 Norte 36 Nordeste 0 935.9 -0.2 34
2019-10-03 12:00:00 20.1 17 Nordeste 29 Nordeste 0 936.2 0.3 36
2019-10-03 11:00:00 17.2 15 Nordeste 21 Nordeste 0 936.5 1 48
2019-10-03 10:00:00 13.8 13 Norte 18 Norte 0 936.1 1 60
2019-10-03 09:00:00 8.6 3 Norte 11 Noroeste 0 935.9 0.9 76
2019-10-03 08:00:00 7.9 2 Noroeste 12 Norte 0 935.5 0.4 77
2019-10-03 07:00:00 8.7 5 Noroeste 10 Norte 0 935.1 0.3 74
2019-10-03 06:00:00 10.2 4 Nordeste 9 Noroeste 0 935 -0.1 69
2019-10-03 05:00:00 11.4 5 Norte 17 Este 0 935.1 -0.2 64
2019-10-03 04:00:00 11.8 12 Este 18 Este 0 934.8 -0.7 62
2019-10-03 03:00:00 12 12 Este 18 Este 0 935.1 -0.5 61
2019-10-03 02:00:00 13.3 13 Este 22 Este 0 935.3 -0.3 57
2019-10-03 01:00:00 12.9 12 Este 18 Este 0 935.5 0.4 57
2019-10-03 00:00:00 14.5 12 Este 19 Este 0 935.6 1.3 51
2019-10-02 23:00:00 16.4 10 Este 23 Nordeste 0 935.6 1.3 46
2019-10-02 22:00:00 17.4 18 Nordeste 25 Nordeste 0 935.1 1.6 43
2019-10-02 21:00:00 18.2 21 Nordeste 26 Nordeste 0 934.3 0.9 39
2019-10-02 20:00:00 19.7 13 Nordeste 28 Nordeste 0 934.3 0.9 33
2019-10-02 19:00:00 22.4 19 Nordeste 33 Nordeste 0 933.5 0 28
2019-10-02 18:00:00 23.4 19 Nordeste 39 Nordeste 0 933.4 -0.2 25
2019-10-02 17:00:00 23.8 22 Nordeste 41 Nordeste 0 933.4 -0.4 22
2019-10-02 16:00:00 23.5 21 Nordeste 40 Nordeste 0 933.5 -0.7 25
2019-10-02 15:00:00 23.1 26 Nordeste 51 Nordeste 0 933.6 -0.9 26
2019-10-02 14:00:00 21.8 20 Nordeste 38 Nordeste 0 933.8 -0.5 29
2019-10-02 13:00:00 20.7 14 Nordeste 31 Nordeste 0 934.2 0 39
2019-10-02 12:00:00 19.3 11 Nordeste 25 Nordeste 0 934.5 0.9 47
2019-10-02 11:00:00 16.6 12 Nordeste 21 Norte 0 934.3 1.4 57
2019-10-02 10:00:00 14 17 Norte 22 Norte 0 934.2 1.4 68
2019-10-02 09:00:00 10.4 15 Norte 19 Norte 0 933.6 0.8 81
2019-10-02 08:00:00 10.3 15 Norte 18 Norte 0 932.9 0.4 82
2019-10-02 07:00:00 10.6 13 Norte 19 Norte 0 932.8 0.3 82
2019-10-02 06:00:00 11.3 13 Norte 17 Norte 0 932.8 0 79
2019-10-02 05:00:00 12 12 Norte 15 Norte 0 932.5 -0.1 75
2019-10-02 04:00:00 13.2 6 Noroeste 12 Noroeste 0 932.5 -0.1 69
2019-10-02 03:00:00 15.1 9 Oeste 13 Oeste 0 932.8 0.5 61
2019-10-02 02:00:00 15.7 6 Noroeste 18 Nordeste 0 932.6 0.7 59
2019-10-02 01:00:00 15.4 5 Sudoeste -- -- 0 932.6 1.3 61
2019-10-02 00:00:00 16.4 7 Norte 14 Noroeste 0 932.3 1.1 54
2019-10-01 23:00:00 18.2 11 Noroeste 30 Nordeste 0 931.9 1.3 47
2019-10-01 22:00:00 20.5 22 Nordeste 29 Nordeste 0 931.3 1 40
2019-10-01 21:00:00 21.6 19 Nordeste 29 Nordeste 0 931.2 1.3 27
2019-10-01 20:00:00 22.5 12 Norte 36 Nordeste 0 930.6 0.7 22
2019-10-01 19:00:00 25.6 26 Nordeste -- -- 0 930.3 0 21
2019-10-01 18:00:00 27.3 24 Norte 37 Norte 0 929.9 -0.8 24
2019-10-01 17:00:00 27.2 21 Norte 41 Norte 0 929.9 -1.4 23
2019-10-01 16:00:00 27.6 24 Norte 40 Norte 0 930.3 -1.6 22
2019-10-01 15:00:00 26.4 26 Norte 39 Norte 0 930.7 -1.6 28
2019-10-01 14:00:00 26.1 19 Norte 32 Norte 0 931.3 -1.2 29
2019-10-01 13:00:00 24.7 18 Norte 28 Norte 0 931.9 -0.3 33
2019-10-01 12:00:00 22.9 16 Norte 23 Norte 0 932.3 0.7 35
2019-10-01 11:00:00 19.9 14 Norte 23 Norte 0 932.5 1 47
2019-10-01 10:00:00 16.7 4 Este 12 Este 0 932.2 0.9 58
2019-10-01 09:00:00 13.1 10 Este 16 Este 0 931.6 0.1 69
2019-10-01 08:00:00 12.1 9 Este 15 Este 0 931.5 -0.1 72
2019-10-01 07:00:00 11.7 10 Este 14 Este 0 931.3 -0.8 70
2019-10-01 06:00:00 11.7 9 Este 13 Este 0 931.5 -1.3 67
2019-10-01 05:00:00 12.4 10 Este 13 Este 0 931.6 -1.4 64
2019-10-01 04:00:00 13.4 5 Este 13 Este 0 932.1 -1.1 62
2019-10-01 03:00:00 13.7 9 Este 15 Este 0 932.8 -0.6 57
2019-10-01 02:00:00 14.8 4 Sudeste 11 Este 0 933 -0.1 58
2019-10-01 01:00:00 15.8 9 Este 11 Este 0 933.2 0.1 54
2019-10-01 00:00:00 17.4 4 Este 19 Oeste 0 933.4 0.6 47
2019-09-30 23:00:00 18 7 Este 10 Este 0 933.1 0.4 43
2019-09-30 22:00:00 19.5 5 Sudeste 6 Sudeste 0 933.1 0.7 45
2019-09-30 21:00:00 22.5 6 Nordeste 11 Nordeste 0 932.8 0.2 33
2019-09-30 20:00:00 25.1 9 Nordeste 12 Norte 0 932.7 -0.4 29
2019-09-30 19:00:00 28.9 8 Noroeste 17 Noroeste 0 932.4 -1.2 23
2019-09-30 18:00:00 28.8 14 Norte 21 Norte 0 932.6 -1.5 21
2019-09-30 17:00:00 29.8 10 Norte 19 Norte 0 933.1 -1.9 19
2019-09-30 16:00:00 30.1 4 Norte -- -- 0 933.6 -2 20
2019-09-30 15:00:00 29.3 5 Sudoeste -- -- 0 934.1 -1.8 21
2019-09-30 14:00:00 28.3 -- -- -- -- 0 935 -0.9 25
2019-09-30 13:00:00 26.6 6 Oeste 10 Oeste 0 935.6 -0.2 29
2019-09-30 12:00:00 23.7 4 Sur 10 Sur 0 935.9 0.4 35
2019-09-30 11:00:00 20.9 4 Sur 9 Sur 0 935.9 0.8 40
2019-09-30 10:00:00 16.8 7 Este 13 Este 0 935.8 1 51
2019-09-30 09:00:00 12.7 8 Este 15 Este 0 935.5 0.7 63
2019-09-30 08:00:00 10.9 10 Este 14 Este 0 935.1 0.2 68
2019-09-30 07:00:00 11.6 9 Este 15 Este 0 934.8 -0.5 65
2019-09-30 06:00:00 12 12 Este 16 Este 0 934.8 -0.8 65
2019-09-30 05:00:00 12.9 12 Este 17 Este 0 934.9 -0.7 61
2019-09-30 04:00:00 12.9 9 Este 13 Este 0 935.3 -0.3 64
2019-09-30 03:00:00 13.6 9 Este 11 Este 0 935.6 0.1 60
2019-09-30 02:00:00 14.2 6 Este 9 Este 0 935.6 0.3 59
2019-09-30 01:00:00 15.7 4 Sudeste 8 Este 0 935.6 0.5 54
2019-09-30 00:00:00 17.7 9 Este 15 Sudeste 0 935.5 0.8 44
2019-09-29 23:00:00 17.8 12 Este 18 Este 0 935.3 0.9 45
2019-09-29 22:00:00 19.5 10 Este 13 Este 0 935.1 0.8 43
2019-09-29 21:00:00 21.9 6 Este 11 Este 0 934.7 0.4 39
2019-09-29 20:00:00 25.3 9 Nordeste 13 Nordeste 0 934.4 -0.2 30
2019-09-29 19:00:00 28.7 10 Nordeste -- -- 0 934.3 -0.7 21
2019-09-29 18:00:00 29.2 16 Norte 35 Norte 0 934.3 -1.3 21
2019-09-29 17:00:00 29.6 18 Norte 32 Noroeste 0 934.6 -1.8 20
2019-09-29 16:00:00 29.5 13 Norte 30 Norte 0 935 -1.6 17
2019-09-29 15:00:00 28.9 14 Norte 28 Noroeste 0 935.6 -1.3 20
2019-09-29 14:00:00 27.3 10 Norte 21 Norte 0 936.4 -0.5 30
2019-09-29 13:00:00 25.6 8 Noroeste 17 Noroeste 0 936.6 0 33
2019-09-29 12:00:00 23.4 6 Noroeste 13 Oeste 0 936.9 0.7 46
2019-09-29 11:00:00 20.7 5 Sudoeste -- -- 0 936.9 1.1 68
2019-09-29 10:00:00 18 6 Sudeste 11 Este 0 936.6 1.1 82
2019-09-29 09:00:00 14.4 5 Este 9 Sudeste 0 936.2 0.7 91
2019-09-29 08:00:00 12.9 4 Sudeste 13 Sudeste 0 935.8 0.1 95
2019-09-29 07:00:00 13.6 9 Este 14 Este 0 935.5 -0.5 94
2019-09-29 06:00:00 14.2 7 Este 11 Sudeste 0 935.5 -0.7 91
2019-09-29 05:00:00 15.9 9 Sudeste 12 Sudeste 0 935.7 -0.4 93
2019-09-29 04:00:00 16.2 9 Sudeste 16 Sur 0 936 -0.4 89
2019-09-29 03:00:00 17.7 8 Sur 16 Sur 0 936.2 -0.3 82
2019-09-29 02:00:00 18.4 10 Sudoeste 22 Sur 0 936.1 -0.4 74
2019-09-29 01:00:00 19.3 12 Sudoeste 21 Sudoeste 0 936.4 0.1 67
2019-09-29 00:00:00 20 11 Sur 20 Sudoeste 0 936.5 0.7 69
2019-09-28 23:00:00 19.7 8 Sur 13 Sudoeste 0 936.5 1 63
2019-09-28 22:00:00 20.9 10 Sur 18 Sudoeste 0 936.3 0.7 50
2019-09-28 21:00:00 22.6 6 Este -- -- 0 935.8 0.1 45
2019-09-28 20:00:00 26 5 Norte 9 Norte 0 935.5 -0.4 34
2019-09-28 19:00:00 28.6 0 Calma 12 Oeste 0 935.6 -0.6 25
2019-09-28 18:00:00 28.8 3 Sur 18 Oeste 0 935.7 -1.1 24
2019-09-28 17:00:00 28.6 -- -- -- -- 0 935.9 -1.6 24
2019-09-28 16:00:00 28.6 6 Este -- -- 0 936.2 -1.7 24
2019-09-28 15:00:00 28.6 6 Oeste 17 Noroeste 0 936.8 -1.5 26
2019-09-28 14:00:00 27 5 Noroeste -- -- 0 937.5 -0.9 33
2019-09-28 13:00:00 25.3 6 Oeste -- -- 0 937.9 0.1 36
2019-09-28 12:00:00 23 6 Sur 11 Sur 0 938.3 0.9 40
2019-09-28 11:00:00 20.5 5 Sur 10 Sur 0 938.4 1.6 49
2019-09-28 10:00:00 17.8 4 Sudoeste 8 Sur 0 937.8 1.4 60
2019-09-28 09:00:00 13.3 5 Este 14 Este 0 937.4 1 74
2019-09-28 08:00:00 11.5 7 Este 11 Este 0 936.8 0.4 81
2019-09-28 07:00:00 11.8 6 Este 15 Este 0 936.4 0.1 79
2019-09-28 06:00:00 12.6 9 Este 13 Este 0 936.4 -0.1 79
2019-09-28 05:00:00 13 11 Este 15 Este 0 936.4 -0.2 75
2019-09-28 04:00:00 13.9 6 Sudeste 11 Este 0 936.3 -0.3 73
2019-09-28 03:00:00 14.3 9 Este 14 Este 0 936.5 0 71
2019-09-28 02:00:00 15.2 8 Este 11 Este 0 936.6 0.3 71
2019-09-28 01:00:00 15.9 2 Sudeste 14 Sudoeste 0 936.6 0.7 67
2019-09-28 00:00:00 17.1 6 Este 15 Este 0 936.5 1 59
2019-09-27 23:00:00 17.9 11 Este 14 Este 0 936.3 1.2 59
2019-09-27 22:00:00 19.3 9 Este 13 Este 0 935.9 0.7 56
2019-09-27 21:00:00 21.9 6 Este 9 Nordeste 0 935.5 0.5 47
2019-09-27 20:00:00 24.8 5 Nordeste 17 Norte 0 935.1 0 38
2019-09-27 19:00:00 27.1 13 Nordeste 29 Noroeste 0 935.2 -0.2 29
2019-09-27 18:00:00 27.7 13 Norte 33 Norte 0 935 -0.9 29
2019-09-27 17:00:00 27.7 17 Norte 29 Norte 0 935.1 -1.3 26
2019-09-27 16:00:00 27.6 15 Norte 29 Norte 0 935.4 -1.3 27
2019-09-27 15:00:00 26.9 17 Norte 29 Norte 0 935.9 -1.2 30
2019-09-27 14:00:00 26 14 Norte 22 Norte 0 936.4 -0.8 33
2019-09-27 13:00:00 23.9 9 Norte 15 Norte 0 936.7 -0.3 42
2019-09-27 12:00:00 21.8 6 Norte 14 Noroeste 0 937.1 0.5 52
2019-09-27 11:00:00 20 3 Noroeste 6 Oeste 0 937.2 0.8 55
2019-09-27 10:00:00 16.8 -- -- -- -- 0 937 0.9 70
2019-09-27 09:00:00 13.7 6 Este 12 Este 0 936.6 0.6 80
2019-09-27 08:00:00 11.8 7 Este 13 Este 0 936.4 0.5 85
2019-09-27 07:00:00 12.1 9 Este 13 Este 0 936.1 0.2 84
2019-09-27 06:00:00 12.9 6 Este 12 Este 0 936 -0.2 81
2019-09-27 05:00:00 13.2 9 Este 14 Este 0 935.9 -0.5 77
2019-09-27 04:00:00 13.8 9 Este 14 Este 0 935.9 -0.6 75
2019-09-27 03:00:00 13.9 9 Este 14 Este 0 936.2 -0.4 76
2019-09-27 02:00:00 14.6 10 Este 13 Este 0 936.4 0 73
2019-09-27 01:00:00 15.5 6 Este 10 Este 0 936.5 0.3 73
2019-09-27 00:00:00 16.5 5 Sudeste 9 Este 0 936.6 0.9 67
2019-09-26 23:00:00 17.8 6 Este 10 Este 0 936.4 1 62
2019-09-26 22:00:00 19.6 5 Este 10 Nordeste 0 936.2 1.1 55
2019-09-26 21:00:00 21.8 10 Nordeste 14 Nordeste 0 935.7 0.7 44
2019-09-26 20:00:00 24.2 8 Nordeste 18 Norte 0 935.4 0 40
2019-09-26 19:00:00 26.7 11 Norte 18 Noroeste 0 935.1 -0.5 33
2019-09-26 18:00:00 27.4 6 Norte 23 Norte 0 935 -1 31
2019-09-26 17:00:00 27.6 7 Noroeste 20 Noroeste 0 935.4 -1.1 29
2019-09-26 16:00:00 26.9 6 Noroeste 17 Noroeste 0 935.6 -1.4 30
2019-09-26 15:00:00 26.5 7 Noroeste -- -- 0 936 -1.6 34
2019-09-26 14:00:00 25 6 Sudoeste -- -- 0 936.5 -1.1 39
2019-09-26 13:00:00 23.8 -- -- -- -- 0 937 -0.1 48
2019-09-26 12:00:00 22.2 -- -- -- -- 0 937.6 1 55
2019-09-26 11:00:00 19.7 -- -- -- -- 0 937.6 1.3 63
2019-09-26 10:00:00 16.7 6 Sudeste 14 Este 0 937.1 1.2 69
2019-09-26 09:00:00 13 10 Este 17 Este 0 936.6 1 82
2019-09-26 08:00:00 10.9 7 Este 11 Este 0 936.3 0.9 89
2019-09-26 07:00:00 11.6 7 Sudeste 10 Este 0 935.9 0.6 87
2019-09-26 06:00:00 11.9 8 Este 17 Este 0 935.6 0.2 85
2019-09-26 05:00:00 12.3 8 Este 15 Este 0 935.4 -0.2 83
2019-09-26 04:00:00 12.7 4 Este 11 Este 0 935.3 -0.4 82
2019-09-26 03:00:00 13.2 5 Este 12 Este 0 935.4 -0.1 81
2019-09-26 02:00:00 13.7 5 Este 12 Este 0 935.6 0.3 78
2019-09-26 01:00:00 14.7 4 Sudeste 13 Este 0 935.7 0.5 74
2019-09-26 00:00:00 15.4 8 Este 11 Este 0 935.5 0.8 73
2019-09-25 23:00:00 16.7 3 Sudeste 10 Noroeste 0 935.3 0.9 69
2019-09-25 22:00:00 17.5 9 Noroeste 10 Noroeste 0 935.2 1.1 63
2019-09-25 21:00:00 19.3 8 Norte 11 Norte 0 934.7 0.8 53
2019-09-25 20:00:00 21.1 10 Norte 22 Nordeste 0 934.4 0.5 46
2019-09-25 19:00:00 23.1 14 Norte 28 Norte 0 934.1 -0.1 38
2019-09-25 18:00:00 23.5 17 Norte 31 Norte 0 933.9 -0.5 37
2019-09-25 17:00:00 23.7 18 Norte 31 Norte 0 933.9 -1 40
2019-09-25 16:00:00 23.1 18 Norte 35 Norte 0 934.2 -1.1 41
2019-09-25 15:00:00 22.5 18 Norte 30 Norte 0 934.4 -1.1 48
2019-09-25 14:00:00 21.7 18 Norte 27 Norte 0 934.9 -0.7 51
2019-09-25 13:00:00 20.8 13 Norte 27 Norte 0 935.3 0.3 57
2019-09-25 12:00:00 20.3 13 Norte 21 Noroeste 0 935.5 1.1 60
2019-09-25 11:00:00 17.9 13 Norte 19 Norte 0 935.6 1.6 73
2019-09-25 10:00:00 16.5 12 Norte 18 Norte 0 935 1.2 83
2019-09-25 09:00:00 14.9 12 Norte 16 Norte 0 934.4 0.4 91
2019-09-25 08:00:00 14.2 7 Norte 14 Norte 0 934 0.1 91
2019-09-25 07:00:00 15.2 9 Norte 16 Norte 0 933.8 -0.3 89
2019-09-25 06:00:00 15 6 Norte 10 Norte 0 934 -0.5 85
2019-09-25 05:00:00 15 6 Noroeste 10 Norte 0 933.9 -0.6 83
2019-09-25 04:00:00 14.9 9 Norte 10 Norte 0 934.1 -0.6 81
2019-09-25 03:00:00 15.2 8 Norte 11 Norte 0 934.5 -0.4 78
2019-09-25 02:00:00 16 8 Norte 9 Norte 0 934.5 -0.3 76
2019-09-25 01:00:00 16.6 6 Norte 9 Norte 0 934.7 0.1 74
2019-09-25 00:00:00 17.2 6 Norte 13 Nordeste 0 934.9 0.8 72
2019-09-24 23:00:00 18.3 10 Nordeste 15 Norte 0 934.8 1 63
2019-09-24 22:00:00 19.4 9 Norte 15 Noroeste 0 934.6 0.8 55
2019-09-24 21:00:00 21.1 9 Noroeste 14 Noroeste 0 934.1 -0.1 48
2019-09-24 20:00:00 23.9 8 Noroeste 20 Noroeste 0 933.8 -0.7 40
2019-09-24 19:00:00 26.3 15 Norte 24 Norte 0 933.8 -1.3 34
2019-09-24 18:00:00 26.5 18 Norte 31 Norte 0 934.2 -1.5 31
2019-09-24 17:00:00 26.4 22 Norte 33 Noroeste 0 934.5 -2 31
2019-09-24 16:00:00 25.9 20 Norte 34 Norte 0 935.1 -2 30
2019-09-24 15:00:00 24.8 18 Norte 30 Norte 0 935.7 -1.9 33
2019-09-24 14:00:00 23.4 19 Norte 31 Norte 0 936.5 -1.3 39
2019-09-24 13:00:00 22.1 22 Norte 30 Norte 0 937.1 -0.3 43
2019-09-24 12:00:00 20 13 Norte 22 Norte 0 937.6 0.6 55
2019-09-24 11:00:00 17.1 10 Norte 16 Noroeste 0 937.8 1.3 70
2019-09-24 10:00:00 15.3 5 Norte 10 Norte 0 937.4 1.1 76
2019-09-24 09:00:00 13.1 5 Este 9 Este 0 937 1 81
2019-09-24 08:00:00 10.9 4 Este 11 Este 0 936.5 0.2 89
2019-09-24 07:00:00 11.1 9 Este 12 Este 0 936.3 -0.4 89
2019-09-24 06:00:00 11.1 9 Este 12 Este 0 936 -1.2 88
2019-09-24 05:00:00 11.5 5 Este 8 Este 0 936.3 -0.9 89
2019-09-24 04:00:00 12.1 3 Sudeste 7 Este 0 936.7 -0.9 87
2019-09-24 03:00:00 12.7 3 Este 11 Este 0 937.2 -0.6 86
2019-09-24 02:00:00 13.5 9 Este 13 Este 0 937.2 -0.8 82
2019-09-24 01:00:00 14.1 7 Este 10 Este 0 937.6 -0.1 80
2019-09-24 00:00:00 14.6 5 Este 8 Este 0 937.8 0.5 81
2019-09-23 23:00:00 15.8 4 Sudeste -- -- 0 938 0.9 80
2019-09-23 22:00:00 17.3 5 Norte 8 Nordeste 0 937.7 0.8 70
2019-09-23 21:00:00 18.3 6 Nordeste 9 Norte 0 937.3 0.5 65
2019-09-23 20:00:00 20 7 Norte 17 Norte 0 937.1 0.4 58
2019-09-23 19:00:00 21.5 11 Norte 21 Nordeste 0 936.9 -0.1 49
2019-09-23 18:00:00 21.8 12 Norte 23 Noroeste 0 936.8 -0.4 45
2019-09-23 17:00:00 22 10 Norte 24 Nordeste 0 936.7 -0.7 48
2019-09-23 16:00:00 21.7 13 Norte 20 Noroeste 0 937 -0.9 46
2019-09-23 15:00:00 20.7 10 Norte 19 Noroeste 0 937.2 -1.1 53
2019-09-23 14:00:00 20.7 9 Noroeste 18 Norte 0 937.4 -0.9 54
2019-09-23 13:00:00 19 9 Norte 18 Norte 0 937.9 0.1 60
2019-09-23 12:00:00 17.6 7 Norte 17 Norte 0 938.3 0.8 69
2019-09-23 11:00:00 15.7 8 Norte 13 Norte 0 938.3 1.4 76
2019-09-23 10:00:00 13.8 4 Norte -- -- 0 937.8 1.2 83
2019-09-23 09:00:00 11.4 3 Este 4 Este 0 937.5 1.6 95
2019-09-23 08:00:00 9.7 -- -- -- -- 0 936.9 1.2 95
2019-09-23 07:00:00 10.5 0 Calma 4 Este 0 936.6 0.8 96
2019-09-23 06:00:00 10.7 2 Este 10 Norte 0 935.9 -0.1 95
2019-09-23 05:00:00 11.5 7 Norte 8 Norte 0 935.7 0.2 94
2019-09-23 04:00:00 11.9 5 Nordeste 10 Norte 0 935.8 0.3 92
2019-09-23 03:00:00 12.4 7 Norte 13 Norte 0 936 0.4 90
2019-09-23 02:00:00 12.6 9 Norte 11 Norte 0 935.5 0.5 91
2019-09-23 01:00:00 13.1 8 Norte 12 Norte 0 935.5 1.2 89
2019-09-23 00:00:00 14.2 10 Norte 13 Norte 0 935.6 1.9 83
2019-09-22 23:00:00 15.3 9 Norte 14 Norte 0 935 2.2 80
2019-09-22 22:00:00 16.1 8 Norte 13 Norte 0 934.3 1.9 78
2019-09-22 21:00:00 17 8 Noroeste 20 Noroeste 0 933.7 1.6 75
2019-09-22 20:00:00 18.5 14 Noroeste 31 Norte 0 932.8 0.5 64
2019-09-22 19:00:00 20.3 26 Norte 42 Norte 0.2 932.4 0.4 57
2019-09-22 18:00:00 20.8 28 Norte 43 Norte 0 932.1 0.1 64
2019-09-22 17:00:00 20 29 Norte 47 Norte 0 932.3 0.3 77
2019-09-22 16:00:00 20.5 27 Noroeste 46 Norte 2.4 932 -0.2 80
2019-09-22 15:00:00 21.4 25 Norte 34 Norte 0 932 -0.5 71
2019-09-22 14:00:00 21.5 23 Norte 39 Noroeste 0 932 -0.2 71
2019-09-22 13:00:00 20.7 20 Noroeste 30 Noroeste 0 932.2 0.1 76
2019-09-22 12:00:00 19.4 22 Norte 36 Norte 0 932.5 0.8 80
2019-09-22 11:00:00 19.5 23 Noroeste 36 Norte 0 932.2 0.9 77
2019-09-22 10:00:00 18.3 14 Noroeste 22 Norte 0 932.1 1 82
2019-09-22 09:00:00 16.6 6 Noroeste 9 Noroeste 0 931.7 0.6 88
2019-09-22 08:00:00 15.8 7 Noroeste 12 Oeste 0 931.3 0.2 91
2019-09-22 07:00:00 15.7 -- -- -- -- 0 931.1 0.1 92
2019-09-22 06:00:00 15.8 3 Sudoeste 5 Oeste 0 931.1 -0.1 94
2019-09-22 05:00:00 16 2 Sudoeste 4 Este 0 931.1 -0.3 93
2019-09-22 04:00:00 16.2 2 Sudoeste -- -- 0 931 -0.5 91
2019-09-22 03:00:00 16.9 5 Oeste 10 Noroeste 0 931.2 -0.7 86
2019-09-22 02:00:00 16.6 5 Oeste 13 Noroeste 0 931.4 -0.2 86
2019-09-22 01:00:00 17.2 10 Noroeste 15 Noroeste 0 931.5 0.2 84
2019-09-22 00:00:00 18 8 Noroeste 13 Noroeste 0 931.9 1.4 81
2019-09-21 23:00:00 18.7 9 Noroeste 18 Noroeste 0 931.6 1.2 77
2019-09-21 22:00:00 19.4 11 Noroeste 23 Noroeste 0 931.3 0.8 74
2019-09-21 21:00:00 20.1 8 Oeste 11 Oeste 0 930.5 -0.1 76
2019-09-21 20:00:00 20.5 5 Oeste 9 Noroeste 0 930.4 0 78
2019-09-21 19:00:00 20.8 5 Noroeste 14 Oeste 0 930.5 -0.2 74
2019-09-21 18:00:00 20.2 6 Norte 30 Noroeste 0.4 930.6 -0.5 84
2019-09-21 17:00:00 22.5 12 Noroeste 23 Norte 0 930.4 -1.4 62
2019-09-21 16:00:00 22.4 7 Norte 18 Noroeste 0 930.7 -1.4 62
2019-09-21 15:00:00 22.5 7 Oeste 18 Noroeste 0 931.1 -1.1 61
2019-09-21 14:00:00 21.4 5 Noroeste 15 Noroeste 0 931.8 -0.3 64
2019-09-21 13:00:00 21.4 5 Oeste 11 Oeste 0 932.1 0.3 64
2019-09-21 12:00:00 20.7 3 Sudeste 6 Sudeste 0 932.2 0.4 70
2019-09-21 11:00:00 18.8 2 Noroeste 8 Norte 0 932.1 0.5 81
2019-09-21 10:00:00 17.9 -- -- -- -- 0 931.8 0.3 88
2019-09-21 09:00:00 16 3 Sur 10 Sur 0.2 931.8 0.2 97
2019-09-21 08:00:00 15.6 2 Oeste 7 Noroeste 0 931.6 0 96
2019-09-21 07:00:00 16.2 6 Oeste 10 Oeste 0 931.5 0.1 96
2019-09-21 06:00:00 16.1 4 Sudoeste -- -- 0.2 931.6 -0.3 96
2019-09-21 05:00:00 15.9 3 Este 35 Oeste 11.8 931.6 -0.7 95
2019-09-21 04:00:00 17.4 11 Sudoeste 22 Sudoeste 0.6 931.4 -0.8 93
2019-09-21 03:00:00 17 10 Sudoeste 29 Sudoeste 2 931.9 -0.2 92
2019-09-21 02:00:00 17.1 10 Sudoeste 28 Sur 0.8 932.3 -0.3 95
2019-09-21 01:00:00 16.9 17 Sudoeste 36 Sur 11.2 932.2 0.1 95
2019-09-21 00:00:00 17.4 16 Sur 32 Sur 1.8 932.1 0.4 90
2019-09-20 23:00:00 17.7 13 Sudoeste 32 Sur 0.4 932.6 0.5 88
2019-09-20 22:00:00 17.7 11 Sur 37 Sur 0.2 932.1 0.2 89
2019-09-20 21:00:00 19 17 Sudoeste 37 Sudoeste 1 931.7 0 90
2019-09-20 20:00:00 20.1 18 Sudoeste 40 Sur 0 932.1 0.1 82
2019-09-20 19:00:00 22.3 22 Sur 41 Sur 0 931.9 -0.6 65
2019-09-20 18:00:00 23.5 19 Sur 37 Sudoeste 0 931.7 -1.1 57
2019-09-20 17:00:00 23.8 19 Sudoeste 43 Sur 0 932 -1.5 54
2019-09-20 16:00:00 23.9 20 Sudoeste 40 Sudoeste 0 932.5 -1.4 55
2019-09-20 15:00:00 23.5 20 Sudoeste 37 Sudoeste 0 932.8 -1.5 57
2019-09-20 14:00:00 23 17 Sudoeste 38 Sudoeste 0 933.5 -1 60
2019-09-20 13:00:00 22.3 17 Sudoeste 35 Sudoeste 0 933.9 -0.6 62
2019-09-20 12:00:00 21 16 Sudoeste 36 Sudoeste 0 934.3 0 66
2019-09-20 11:00:00 20 21 Sudoeste 39 Sudoeste 0 934.5 0.4 69
2019-09-20 10:00:00 19.1 17 Sur 33 Sur 0 934.5 0.5 74
2019-09-20 09:00:00 17.3 15 Sur 34 Sur 0 934.3 0.4 82
2019-09-20 08:00:00 16.6 17 Sur 35 Sur 0 934.1 0.1 86
2019-09-20 07:00:00 17 18 Sur 37 Sur 0 934 -0.2 84
2019-09-20 06:00:00 16.7 18 Sur 33 Sudoeste 0 933.9 -0.4 88
2019-09-20 05:00:00 16.9 15 Sur 28 Sur 0 934 -0.4 86
2019-09-20 04:00:00 17.2 12 Sur 24 Sur 0 934.2 -0.2 79
2019-09-20 03:00:00 17.9 10 Sur 26 Sur 0 934.3 -0.3 78
2019-09-20 02:00:00 18.2 15 Sur 28 Sur 0 934.4 -0.1 78
2019-09-20 01:00:00 18.7 17 Sur 28 Sur 0 934.4 0.2 78
2019-09-20 00:00:00 19.4 15 Sur 31 Sur 0 934.6 1.1 80
2019-09-19 23:00:00 20.1 13 Sur 29 Sur 0 934.5 1.5 77
2019-09-19 22:00:00 20.4 10 Sur 21 Sudoeste 0 934.2 1.5 72
2019-09-19 21:00:00 21.8 8 Sudoeste 18 Oeste 0 933.5 0.8 65
2019-09-19 20:00:00 23.7 7 Sudoeste 22 Oeste 0 933 -0.1 55
2019-09-19 19:00:00 25.8 13 Sudoeste 24 Oeste 0 932.7 -0.5 49
2019-09-19 18:00:00 25.1 8 Sudoeste 17 Sudoeste 0 932.7 -0.7 54
2019-09-19 17:00:00 24.2 10 Sudoeste 42 Oeste 0 933.1 -1 55
2019-09-19 16:00:00 26.1 12 Sudoeste 24 Sur 0 933.2 -1.3 46
2019-09-19 15:00:00 27.4 9 Sudoeste 23 Oeste 0 933.4 -1.5 41
2019-09-19 14:00:00 26.6 10 Sudoeste 22 Oeste 0 934.1 -0.8 46
2019-09-19 13:00:00 25 10 Sur 21 Sudoeste 0 934.5 -0.3 51
2019-09-19 12:00:00 23.8 8 Sudoeste 16 Sur 0 934.9 0.4 60
2019-09-19 11:00:00 21.6 10 Sudoeste 17 Sudoeste 0 934.9 0.8 68
2019-09-19 10:00:00 19.5 6 Sur 11 Sudeste 0 934.8 0.9 71
2019-09-19 09:00:00 16.7 5 Sudeste 12 Este 0 934.5 0.7 80
2019-09-19 08:00:00 15 9 Sudeste 13 Sudeste 0 934.1 0.4 85
2019-09-19 07:00:00 15.1 8 Este 12 Sudeste 0 933.9 0 86
2019-09-19 06:00:00 15.5 7 Este 16 Este 0 933.8 -0.3 86
2019-09-19 05:00:00 15.9 9 Este 14 Este 0 933.7 -0.7 86
2019-09-19 04:00:00 16.1 8 Este 11 Sudeste 0 933.9 -0.3 85
2019-09-19 03:00:00 15.9 8 Este 12 Este 0 934.1 -0.1 85
2019-09-19 02:00:00 16.4 7 Este 15 Sur 0 934.4 0.1 84
2019-09-19 01:00:00 17 8 Este 16 Este 0 934.2 0.1 81
2019-09-19 00:00:00 17.9 9 Este 14 Este 0 934.2 0.7 79
2019-09-18 23:00:00 19.1 5 Este 9 Este 0 934.3 1.2 77
2019-09-18 22:00:00 20.3 3 Sudeste 9 Nordeste 0 934.1 1.3 73
2019-09-18 21:00:00 22.2 5 Nordeste 9 Nordeste 0 933.5 0.7 62
2019-09-18 20:00:00 24.3 7 Norte 15 Norte 0 933.1 0.2 54
2019-09-18 19:00:00 26.3 8 Norte 21 Norte 0 932.8 -0.5 42
2019-09-18 18:00:00 26.8 13 Norte 21 Norte 0 932.8 -1 41
2019-09-18 17:00:00 27.2 6 Nordeste 23 Norte 0 932.9 -1.4 40
2019-09-18 16:00:00 26.5 10 Norte 20 Norte 0 933.3 -1.1 43
2019-09-18 15:00:00 25.8 8 Noroeste 14 Norte 0 933.8 -0.6 46
2019-09-18 14:00:00 24.6 7 Norte 17 Norte 0 934.3 -0.1 51
2019-09-18 13:00:00 23.3 4 Noroeste 9 Este 0 934.4 0.2 56
2019-09-18 12:00:00 21.4 5 Este 12 Nordeste 0 934.4 0.5 63
2019-09-18 11:00:00 19.6 4 Este 10 Sudeste 0 934.4 0.8 72
2019-09-18 10:00:00 17.6 4 Este 10 Este 0 934.2 1.1 79
2019-09-18 09:00:00 14.2 7 Este 10 Este 0 933.9 1 89
2019-09-18 08:00:00 12.8 8 Este 10 Este 0 933.6 0.7 93
2019-09-18 07:00:00 12.9 7 Sudeste 9 Sudeste 0 933.1 -0.2 93
2019-09-18 06:00:00 13.5 4 Este 8 Este 0 932.9 -1.1 91
2019-09-18 05:00:00 14 5 Sudeste 12 Este 0 932.9 -1.4 89
2019-09-18 04:00:00 14.6 8 Este 19 Norte 0 933.3 -1 86
2019-09-18 03:00:00 14.9 9 Sudeste 15 Este 0 934 0 86
2019-09-18 02:00:00 15.3 -- -- -- -- 0 934.3 0.8 86
2019-09-18 01:00:00 16 12 Este -- -- 0 934.3 0.9 84
2019-09-18 00:00:00 16 6 Sur 11 Sur 0 934 0.3 87
2019-09-17 23:00:00 16.4 4 Sur 16 Sudoeste 0 933.5 -0.1 87
2019-09-17 22:00:00 16.9 8 Sudoeste 23 Sur 0 933.4 -0.7 85
2019-09-17 21:00:00 17.2 13 Sudoeste 24 Sudoeste 0 933.7 1.9 82
2019-09-15 18:00:00 22.5 22 Sudoeste -- -- 0 935.5 -1 69
2019-09-15 17:00:00 22.8 -- -- -- -- 0 935.5 -1.5 70
2019-09-15 16:00:00 21.8 -- -- -- -- 0 935.9 -1.5 73
2019-09-15 15:00:00 21.8 -- -- -- -- 0 936.5 -0.9 75
2019-09-15 14:00:00 21.6 -- -- -- -- 0 937 -0.1 74
2019-09-15 13:00:00 21.5 -- -- -- -- 0 937.4 0.2 74
2019-09-15 12:00:00 21.4 21 Sudoeste -- -- 0 937.4 0.6 75
2019-09-15 11:00:00 20.3 -- -- -- -- 0 937.1 0.1 77
2019-09-15 10:00:00 18.5 17 Sur 30 Sur 0 937.2 0.9 83
2019-09-15 09:00:00 17.5 16 Sur -- -- 0 936.8 0.5 84
2019-09-15 08:00:00 17.6 10 Sur 21 Sur 0 937 0.3 84
2019-09-15 07:00:00 17.7 17 Sur 27 Sur 0 936.3 -0.7 84
2019-09-15 06:00:00 17.3 10 Sur 29 Sur 0 936.3 -0.8 86
2019-09-15 05:00:00 17.2 14 Sur -- -- 0 936.7 -0.8 87
2019-09-15 04:00:00 17.6 -- -- -- -- 0 937 -0.8 85
2019-09-15 03:00:00 17.7 -- -- -- -- 0 937.1 -1.3 85
2019-09-15 02:00:00 18.1 -- -- -- -- 0 937.5 -1.1 79
2019-09-15 01:00:00 18.1 17 Sur 34 Sur 0 937.8 -0.6 83
2019-09-15 00:00:00 18.1 15 Sur 33 Sur 0 938.4 0.3 83